sensor_id;sensor_type;location;lat;lon;timestamp;temperature;humidity
21035;DHT22;10676;50.848;3.272;2024-01-15T00:02:05;3.90;99.90
21035;DHT22;10676;50.848;3.272;2024-01-15T00:04:39;4.00;99.90
21035;DHT22;10676;50.848;3.272;2024-01-15T00:07:05;3.90;99.90
21035;DHT22;10676;50.848;3.272;2024-01-15T00:09:31;4.00;99.90
21035;DHT22;10676;50.848;3.272;2024-01-15T00:11:56;4.00;99.90
21035;DHT22;10676;50.848;3.272;2024-01-15T00:14:23;4.00;99.90
21035;DHT22;10676;50.848;3.272;2024-01-15T00:16:48;4.00;99.90
21035;DHT22;10676;50.848;3.272;2024-01-15T00:19:17;4.00;99.90
21035;DHT22;10676;50.848;3.272;2024-01-15T00:21:44;4.10;99.90
21035;DHT22;10676;50.848;3.272;2024-01-15T00:24:10;4.10;99.90
21035;DHT22;10676;50.848;3.272;2024-01-15T00:26:35;4.10;99.90
21035;DHT22;10676;50.848;3.272;2024-01-15T00:29:02;4.10;99.90
21035;DHT22;10676;50.848;3.272;2024-01-15T00:31:29;4.20;99.90
21035;DHT22;10676;50.848;3.272;2024-01-15T00:33:55;4.10;99.90
21035;DHT22;10676;50.848;3.272;2024-01-15T00:36:21;4.10;99.90
21035;DHT22;10676;50.848;3.272;2024-01-15T00:38:47;4.10;99.90
21035;DHT22;10676;50.848;3.272;2024-01-15T00:41:13;4.20;99.90
21035;DHT22;10676;50.848;3.272;2024-01-15T00:43:39;4.20;99.90
21035;DHT22;10676;50.848;3.272;2024-01-15T00:46:05;4.20;99.90
21035;DHT22;10676;50.848;3.272;2024-01-15T00:48:31;4.20;99.90
21035;DHT22;10676;50.848;3.272;2024-01-15T00:50:56;4.20;99.90
21035;DHT22;10676;50.848;3.272;2024-01-15T00:53:22;4.20;99.90
21035;DHT22;10676;50.848;3.272;2024-01-15T00:55:49;4.30;99.90
21035;DHT22;10676;50.848;3.272;2024-01-15T00:58:15;4.40;99.90
21035;DHT22;10676;50.848;3.272;2024-01-15T01:00:41;4.30;99.90
21035;DHT22;10676;50.848;3.272;2024-01-15T01:03:07;4.30;99.90
21035;DHT22;10676;50.848;3.272;2024-01-15T01:05:34;4.30;99.90
21035;DHT22;10676;50.848;3.272;2024-01-15T01:08:00;4.40;99.90
21035;DHT22;10676;50.848;3.272;2024-01-15T01:10:25;4.30;99.90
21035;DHT22;10676;50.848;3.272;2024-01-15T01:12:51;4.30;99.90
21035;DHT22;10676;50.848;3.272;2024-01-15T01:15:17;4.30;99.90
21035;DHT22;10676;50.848;3.272;2024-01-15T01:17:42;4.40;99.90
21035;DHT22;10676;50.848;3.272;2024-01-15T01:20:08;4.40;99.90
21035;DHT22;10676;50.848;3.272;2024-01-15T01:22:36;4.30;99.90
21035;DHT22;10676;50.848;3.272;2024-01-15T01:25:02;4.30;99.90
21035;DHT22;10676;50.848;3.272;2024-01-15T01:27:28;4.30;99.90
21035;DHT22;10676;50.848;3.272;2024-01-15T01:29:53;4.30;99.90
21035;DHT22;10676;50.848;3.272;2024-01-15T01:32:19;4.40;99.90
21035;DHT22;10676;50.848;3.272;2024-01-15T01:34:45;4.40;99.90
21035;DHT22;10676;50.848;3.272;2024-01-15T01:37:11;4.40;99.90
21035;DHT22;10676;50.848;3.272;2024-01-15T01:39:39;4.40;99.90
21035;DHT22;10676;50.848;3.272;2024-01-15T01:42:05;4.40;99.90
21035;DHT22;10676;50.848;3.272;2024-01-15T01:44:30;4.30;99.90
21035;DHT22;10676;50.848;3.272;2024-01-15T01:46:58;4.30;99.90
21035;DHT22;10676;50.848;3.272;2024-01-15T01:49:25;4.30;99.90
21035;DHT22;10676;50.848;3.272;2024-01-15T01:51:51;4.30;99.90
21035;DHT22;10676;50.848;3.272;2024-01-15T01:54:18;4.40;99.90
21035;DHT22;10676;50.848;3.272;2024-01-15T01:56:47;4.30;99.90
21035;DHT22;10676;50.848;3.272;2024-01-15T01:59:13;4.20;99.90
21035;DHT22;10676;50.848;3.272;2024-01-15T02:01:41;4.20;99.90
21035;DHT22;10676;50.848;3.272;2024-01-15T02:04:08;4.30;99.90
21035;DHT22;10676;50.848;3.272;2024-01-15T02:06:34;4.20;99.90
21035;DHT22;10676;50.848;3.272;2024-01-15T02:09:00;4.20;99.90
21035;DHT22;10676;50.848;3.272;2024-01-15T02:11:26;4.20;99.90
21035;DHT22;10676;50.848;3.272;2024-01-15T02:13:52;4.20;99.90
21035;DHT22;10676;50.848;3.272;2024-01-15T02:16:17;4.20;99.90
21035;DHT22;10676;50.848;3.272;2024-01-15T02:18:44;4.10;99.90
21035;DHT22;10676;50.848;3.272;2024-01-15T02:21:10;4.20;99.90
21035;DHT22;10676;50.848;3.272;2024-01-15T02:23:36;4.10;99.90
21035;DHT22;10676;50.848;3.272;2024-01-15T02:26:03;4.10;99.90
21035;DHT22;10676;50.848;3.272;2024-01-15T02:28:30;4.10;99.90
21035;DHT22;10676;50.848;3.272;2024-01-15T02:30:55;4.10;99.90
21035;DHT22;10676;50.848;3.272;2024-01-15T02:33:21;4.10;99.90
21035;DHT22;10676;50.848;3.272;2024-01-15T02:35:47;4.10;99.90
21035;DHT22;10676;50.848;3.272;2024-01-15T02:38:15;4.10;99.90
21035;DHT22;10676;50.848;3.272;2024-01-15T02:40:43;4.20;99.90
21035;DHT22;10676;50.848;3.272;2024-01-15T02:43:09;4.10;99.90
21035;DHT22;10676;50.848;3.272;2024-01-15T02:45:34;4.20;99.90
21035;DHT22;10676;50.848;3.272;2024-01-15T02:48:00;4.10;99.90
21035;DHT22;10676;50.848;3.272;2024-01-15T02:50:26;4.10;99.90
21035;DHT22;10676;50.848;3.272;2024-01-15T02:52:51;4.10;99.90
21035;DHT22;10676;50.848;3.272;2024-01-15T02:55:17;4.10;99.90
21035;DHT22;10676;50.848;3.272;2024-01-15T02:57:43;4.10;99.90
21035;DHT22;10676;50.848;3.272;2024-01-15T03:00:09;4.10;99.90
21035;DHT22;10676;50.848;3.272;2024-01-15T03:02:39;4.10;99.90
21035;DHT22;10676;50.848;3.272;2024-01-15T03:05:11;4.10;99.90
21035;DHT22;10676;50.848;3.272;2024-01-15T03:07:37;4.10;99.90
21035;DHT22;10676;50.848;3.272;2024-01-15T03:10:04;4.10;99.90
21035;DHT22;10676;50.848;3.272;2024-01-15T03:12:30;4.10;99.90
21035;DHT22;10676;50.848;3.272;2024-01-15T03:14:56;4.10;99.90
21035;DHT22;10676;50.848;3.272;2024-01-15T03:17:21;4.10;99.90
21035;DHT22;10676;50.848;3.272;2024-01-15T03:19:47;4.10;99.90
21035;DHT22;10676;50.848;3.272;2024-01-15T03:22:12;4.10;99.90
21035;DHT22;10676;50.848;3.272;2024-01-15T03:24:38;4.10;99.90
21035;DHT22;10676;50.848;3.272;2024-01-15T03:27:04;4.20;99.90
21035;DHT22;10676;50.848;3.272;2024-01-15T03:29:30;4.10;99.90
21035;DHT22;10676;50.848;3.272;2024-01-15T03:31:55;4.10;99.90
21035;DHT22;10676;50.848;3.272;2024-01-15T03:34:21;4.20;99.90
21035;DHT22;10676;50.848;3.272;2024-01-15T03:36:47;4.20;99.90
21035;DHT22;10676;50.848;3.272;2024-01-15T03:39:12;4.30;99.90
21035;DHT22;10676;50.848;3.272;2024-01-15T03:41:38;4.30;99.90
21035;DHT22;10676;50.848;3.272;2024-01-15T03:44:04;4.30;99.90
21035;DHT22;10676;50.848;3.272;2024-01-15T03:46:29;4.30;99.90
21035;DHT22;10676;50.848;3.272;2024-01-15T03:48:55;4.30;99.90
21035;DHT22;10676;50.848;3.272;2024-01-15T03:51:21;4.40;99.90
21035;DHT22;10676;50.848;3.272;2024-01-15T03:53:46;4.30;99.90
21035;DHT22;10676;50.848;3.272;2024-01-15T03:56:12;4.30;99.90
21035;DHT22;10676;50.848;3.272;2024-01-15T03:58:39;4.30;99.90
21035;DHT22;10676;50.848;3.272;2024-01-15T04:01:11;4.30;99.90
21035;DHT22;10676;50.848;3.272;2024-01-15T04:03:37;4.40;99.90
21035;DHT22;10676;50.848;3.272;2024-01-15T04:06:03;4.40;99.90
21035;DHT22;10676;50.848;3.272;2024-01-15T04:08:29;4.40;99.90
21035;DHT22;10676;50.848;3.272;2024-01-15T04:10:54;4.50;99.90
21035;DHT22;10676;50.848;3.272;2024-01-15T04:13:21;4.40;99.90
21035;DHT22;10676;50.848;3.272;2024-01-15T04:15:46;4.50;99.90
21035;DHT22;10676;50.848;3.272;2024-01-15T04:18:12;4.40;99.90
21035;DHT22;10676;50.848;3.272;2024-01-15T04:20:38;4.50;99.90
21035;DHT22;10676;50.848;3.272;2024-01-15T04:23:04;4.50;99.90
21035;DHT22;10676;50.848;3.272;2024-01-15T04:25:30;4.50;99.90
21035;DHT22;10676;50.848;3.272;2024-01-15T04:27:56;4.50;99.90
21035;DHT22;10676;50.848;3.272;2024-01-15T04:30:22;4.60;99.90
21035;DHT22;10676;50.848;3.272;2024-01-15T04:32:47;4.60;99.90
21035;DHT22;10676;50.848;3.272;2024-01-15T04:35:13;4.50;99.90
21035;DHT22;10676;50.848;3.272;2024-01-15T04:37:40;4.50;99.90
21035;DHT22;10676;50.848;3.272;2024-01-15T04:40:06;4.50;99.90
21035;DHT22;10676;50.848;3.272;2024-01-15T04:42:32;4.40;99.90
21035;DHT22;10676;50.848;3.272;2024-01-15T04:44:58;4.40;99.90
21035;DHT22;10676;50.848;3.272;2024-01-15T04:47:24;4.40;99.90
21035;DHT22;10676;50.848;3.272;2024-01-15T04:49:49;4.30;99.90
21035;DHT22;10676;50.848;3.272;2024-01-15T04:52:15;4.30;99.90
21035;DHT22;10676;50.848;3.272;2024-01-15T04:54:41;4.30;99.90
21035;DHT22;10676;50.848;3.272;2024-01-15T04:57:06;4.30;99.90
21035;DHT22;10676;50.848;3.272;2024-01-15T04:59:32;4.20;99.90
21035;DHT22;10676;50.848;3.272;2024-01-15T05:01:58;4.30;99.90
21035;DHT22;10676;50.848;3.272;2024-01-15T05:04:23;4.20;99.90
21035;DHT22;10676;50.848;3.272;2024-01-15T05:06:50;4.10;99.90
21035;DHT22;10676;50.848;3.272;2024-01-15T05:09:16;4.10;99.90
21035;DHT22;10676;50.848;3.272;2024-01-15T05:11:43;4.20;99.90
21035;DHT22;10676;50.848;3.272;2024-01-15T05:14:09;4.10;99.90
21035;DHT22;10676;50.848;3.272;2024-01-15T05:16:34;4.10;99.90
21035;DHT22;10676;50.848;3.272;2024-01-15T05:19:00;4.10;99.90
21035;DHT22;10676;50.848;3.272;2024-01-15T05:21:25;4.10;99.90
21035;DHT22;10676;50.848;3.272;2024-01-15T05:23:51;4.10;99.90
21035;DHT22;10676;50.848;3.272;2024-01-15T05:26:17;4.10;99.90
21035;DHT22;10676;50.848;3.272;2024-01-15T05:28:43;4.10;99.90
21035;DHT22;10676;50.848;3.272;2024-01-15T05:31:09;4.00;99.90
21035;DHT22;10676;50.848;3.272;2024-01-15T05:33:36;4.10;99.90
21035;DHT22;10676;50.848;3.272;2024-01-15T05:36:01;4.10;99.90
21035;DHT22;10676;50.848;3.272;2024-01-15T05:38:27;4.00;99.90
21035;DHT22;10676;50.848;3.272;2024-01-15T05:40:53;4.00;99.90
21035;DHT22;10676;50.848;3.272;2024-01-15T05:43:19;4.00;99.90
21035;DHT22;10676;50.848;3.272;2024-01-15T05:45:45;4.00;99.90
21035;DHT22;10676;50.848;3.272;2024-01-15T05:48:11;4.00;99.90
21035;DHT22;10676;50.848;3.272;2024-01-15T05:50:38;4.00;99.90
21035;DHT22;10676;50.848;3.272;2024-01-15T05:53:04;4.00;99.90
21035;DHT22;10676;50.848;3.272;2024-01-15T05:55:29;4.00;99.90
21035;DHT22;10676;50.848;3.272;2024-01-15T05:57:55;4.00;99.90
21035;DHT22;10676;50.848;3.272;2024-01-15T06:00:21;4.10;99.90
21035;DHT22;10676;50.848;3.272;2024-01-15T06:02:48;4.10;99.90
21035;DHT22;10676;50.848;3.272;2024-01-15T06:05:14;4.00;99.90
21035;DHT22;10676;50.848;3.272;2024-01-15T06:07:39;4.00;99.90
21035;DHT22;10676;50.848;3.272;2024-01-15T06:10:05;4.00;99.90
21035;DHT22;10676;50.848;3.272;2024-01-15T06:12:31;4.00;99.90
21035;DHT22;10676;50.848;3.272;2024-01-15T06:14:59;4.00;99.90
21035;DHT22;10676;50.848;3.272;2024-01-15T06:17:24;4.00;99.90
21035;DHT22;10676;50.848;3.272;2024-01-15T06:19:50;4.10;99.90
21035;DHT22;10676;50.848;3.272;2024-01-15T06:22:16;4.10;99.90
21035;DHT22;10676;50.848;3.272;2024-01-15T06:24:41;4.10;99.90
21035;DHT22;10676;50.848;3.272;2024-01-15T06:27:07;4.10;99.90
21035;DHT22;10676;50.848;3.272;2024-01-15T06:29:32;4.10;99.90
21035;DHT22;10676;50.848;3.272;2024-01-15T06:31:58;4.10;99.90
21035;DHT22;10676;50.848;3.272;2024-01-15T06:34:24;4.10;99.90
21035;DHT22;10676;50.848;3.272;2024-01-15T06:36:49;4.10;99.90
21035;DHT22;10676;50.848;3.272;2024-01-15T06:39:15;4.10;99.90
21035;DHT22;10676;50.848;3.272;2024-01-15T06:41:41;4.00;99.90
21035;DHT22;10676;50.848;3.272;2024-01-15T06:44:10;4.10;99.90
21035;DHT22;10676;50.848;3.272;2024-01-15T06:46:36;4.00;99.90
21035;DHT22;10676;50.848;3.272;2024-01-15T06:49:02;4.00;99.90
21035;DHT22;10676;50.848;3.272;2024-01-15T06:51:29;4.00;99.90
21035;DHT22;10676;50.848;3.272;2024-01-15T06:53:57;3.90;99.90
21035;DHT22;10676;50.848;3.272;2024-01-15T06:56:23;3.80;99.90
21035;DHT22;10676;50.848;3.272;2024-01-15T06:58:49;3.70;99.90
21035;DHT22;10676;50.848;3.272;2024-01-15T07:01:14;3.60;99.90
21035;DHT22;10676;50.848;3.272;2024-01-15T07:03:41;3.40;99.90
21035;DHT22;10676;50.848;3.272;2024-01-15T07:06:06;3.30;99.90
21035;DHT22;10676;50.848;3.272;2024-01-15T07:08:32;3.10;99.90
21035;DHT22;10676;50.848;3.272;2024-01-15T07:10:58;3.00;99.90
21035;DHT22;10676;50.848;3.272;2024-01-15T07:13:23;2.90;99.90
21035;DHT22;10676;50.848;3.272;2024-01-15T07:15:49;2.80;99.90
21035;DHT22;10676;50.848;3.272;2024-01-15T07:18:15;2.70;99.90
21035;DHT22;10676;50.848;3.272;2024-01-15T07:20:42;2.50;99.90
21035;DHT22;10676;50.848;3.272;2024-01-15T07:23:07;2.40;99.90
21035;DHT22;10676;50.848;3.272;2024-01-15T07:25:33;2.30;99.90
21035;DHT22;10676;50.848;3.272;2024-01-15T07:27:59;2.20;99.90
21035;DHT22;10676;50.848;3.272;2024-01-15T07:30:24;2.20;99.90
21035;DHT22;10676;50.848;3.272;2024-01-15T07:32:50;2.10;99.90
21035;DHT22;10676;50.848;3.272;2024-01-15T07:35:16;2.10;99.90
21035;DHT22;10676;50.848;3.272;2024-01-15T07:37:42;2.00;99.90
21035;DHT22;10676;50.848;3.272;2024-01-15T07:40:08;1.90;99.90
21035;DHT22;10676;50.848;3.272;2024-01-15T07:42:37;1.90;99.90
21035;DHT22;10676;50.848;3.272;2024-01-15T07:45:04;1.90;99.90
21035;DHT22;10676;50.848;3.272;2024-01-15T07:47:29;1.80;99.90
21035;DHT22;10676;50.848;3.272;2024-01-15T07:49:55;1.80;99.90
21035;DHT22;10676;50.848;3.272;2024-01-15T07:52:21;1.80;99.90
21035;DHT22;10676;50.848;3.272;2024-01-15T07:54:47;1.80;99.90
21035;DHT22;10676;50.848;3.272;2024-01-15T07:57:13;1.70;99.90
21035;DHT22;10676;50.848;3.272;2024-01-15T07:59:39;1.70;99.90
21035;DHT22;10676;50.848;3.272;2024-01-15T08:02:05;1.80;99.90
21035;DHT22;10676;50.848;3.272;2024-01-15T08:04:31;1.80;99.90
21035;DHT22;10676;50.848;3.272;2024-01-15T08:06:57;1.80;99.90
21035;DHT22;10676;50.848;3.272;2024-01-15T08:09:23;1.80;99.90
21035;DHT22;10676;50.848;3.272;2024-01-15T08:11:49;1.90;99.90
21035;DHT22;10676;50.848;3.272;2024-01-15T08:14:15;1.90;99.90
21035;DHT22;10676;50.848;3.272;2024-01-15T08:16:41;1.90;99.90
21035;DHT22;10676;50.848;3.272;2024-01-15T08:19:06;1.90;99.90
21035;DHT22;10676;50.848;3.272;2024-01-15T08:21:32;2.00;99.90
21035;DHT22;10676;50.848;3.272;2024-01-15T08:24:02;2.00;99.90
21035;DHT22;10676;50.848;3.272;2024-01-15T08:26:29;2.10;99.90
21035;DHT22;10676;50.848;3.272;2024-01-15T08:28:54;2.10;99.90
21035;DHT22;10676;50.848;3.272;2024-01-15T08:31:20;2.20;99.90
21035;DHT22;10676;50.848;3.272;2024-01-15T08:33:46;2.20;99.90
21035;DHT22;10676;50.848;3.272;2024-01-15T08:36:12;2.30;99.90
21035;DHT22;10676;50.848;3.272;2024-01-15T08:38:38;2.50;99.90
21035;DHT22;10676;50.848;3.272;2024-01-15T08:41:04;2.60;99.90
21035;DHT22;10676;50.848;3.272;2024-01-15T08:43:30;2.80;99.90
21035;DHT22;10676;50.848;3.272;2024-01-15T08:45:58;2.90;99.90
21035;DHT22;10676;50.848;3.272;2024-01-15T08:48:24;2.90;99.90
21035;DHT22;10676;50.848;3.272;2024-01-15T08:50:53;3.00;99.90
21035;DHT22;10676;50.848;3.272;2024-01-15T08:53:20;3.10;99.90
21035;DHT22;10676;50.848;3.272;2024-01-15T08:55:45;3.10;99.90
21035;DHT22;10676;50.848;3.272;2024-01-15T08:58:11;3.20;99.90
21035;DHT22;10676;50.848;3.272;2024-01-15T09:00:37;3.20;99.90
21035;DHT22;10676;50.848;3.272;2024-01-15T09:03:03;3.30;99.90
21035;DHT22;10676;50.848;3.272;2024-01-15T09:05:28;3.20;99.90
21035;DHT22;10676;50.848;3.272;2024-01-15T09:07:55;3.20;99.90
21035;DHT22;10676;50.848;3.272;2024-01-15T09:10:21;3.30;99.90
21035;DHT22;10676;50.848;3.272;2024-01-15T09:12:47;3.20;99.90
21035;DHT22;10676;50.848;3.272;2024-01-15T09:15:14;3.30;99.90
21035;DHT22;10676;50.848;3.272;2024-01-15T09:17:40;3.40;99.90
21035;DHT22;10676;50.848;3.272;2024-01-15T09:20:06;3.50;99.90
21035;DHT22;10676;50.848;3.272;2024-01-15T09:22:32;3.60;99.90
21035;DHT22;10676;50.848;3.272;2024-01-15T09:24:58;3.70;99.90
21035;DHT22;10676;50.848;3.272;2024-01-15T09:27:24;3.80;99.90
21035;DHT22;10676;50.848;3.272;2024-01-15T09:29:53;4.00;99.90
21035;DHT22;10676;50.848;3.272;2024-01-15T09:32:19;4.00;99.90
21035;DHT22;10676;50.848;3.272;2024-01-15T09:34:48;4.40;99.90
21035;DHT22;10676;50.848;3.272;2024-01-15T09:37:15;5.10;99.90
21035;DHT22;10676;50.848;3.272;2024-01-15T09:39:41;5.90;99.90
21035;DHT22;10676;50.848;3.272;2024-01-15T09:42:08;6.50;99.90
21035;DHT22;10676;50.848;3.272;2024-01-15T09:44:34;6.80;99.90
21035;DHT22;10676;50.848;3.272;2024-01-15T09:47:01;7.00;99.90
21035;DHT22;10676;50.848;3.272;2024-01-15T09:49:27;7.00;99.90
21035;DHT22;10676;50.848;3.272;2024-01-15T09:51:55;7.40;99.90
21035;DHT22;10676;50.848;3.272;2024-01-15T09:54:21;8.20;99.90
21035;DHT22;10676;50.848;3.272;2024-01-15T09:56:47;9.00;99.90
21035;DHT22;10676;50.848;3.272;2024-01-15T09:59:16;9.90;99.90
21035;DHT22;10676;50.848;3.272;2024-01-15T10:01:44;10.50;99.90
21035;DHT22;10676;50.848;3.272;2024-01-15T10:04:11;10.90;99.90
21035;DHT22;10676;50.848;3.272;2024-01-15T10:06:38;11.20;99.90
21035;DHT22;10676;50.848;3.272;2024-01-15T10:09:05;11.60;99.90
21035;DHT22;10676;50.848;3.272;2024-01-15T10:11:33;11.80;99.90
21035;DHT22;10676;50.848;3.272;2024-01-15T10:13:59;12.20;99.90
21035;DHT22;10676;50.848;3.272;2024-01-15T10:16:25;12.50;99.90
21035;DHT22;10676;50.848;3.272;2024-01-15T10:18:51;12.60;99.90
21035;DHT22;10676;50.848;3.272;2024-01-15T10:21:17;12.60;99.90
21035;DHT22;10676;50.848;3.272;2024-01-15T10:23:43;12.70;99.90
21035;DHT22;10676;50.848;3.272;2024-01-15T10:26:10;12.40;99.90
21035;DHT22;10676;50.848;3.272;2024-01-15T10:28:37;11.70;99.90
21035;DHT22;10676;50.848;3.272;2024-01-15T10:31:03;11.00;99.90
21035;DHT22;10676;50.848;3.272;2024-01-15T10:33:30;10.30;99.90
21035;DHT22;10676;50.848;3.272;2024-01-15T10:36:00;9.60;99.90
21035;DHT22;10676;50.848;3.272;2024-01-15T10:38:26;9.10;99.90
21035;DHT22;10676;50.848;3.272;2024-01-15T10:40:55;8.70;99.90
21035;DHT22;10676;50.848;3.272;2024-01-15T10:43:22;8.30;99.90
21035;DHT22;10676;50.848;3.272;2024-01-15T10:45:50;8.10;99.90
21035;DHT22;10676;50.848;3.272;2024-01-15T10:48:19;7.80;99.90
21035;DHT22;10676;50.848;3.272;2024-01-15T10:50:46;7.50;99.90
21035;DHT22;10676;50.848;3.272;2024-01-15T10:53:14;7.20;99.90
21035;DHT22;10676;50.848;3.272;2024-01-15T10:55:41;7.00;99.90
21035;DHT22;10676;50.848;3.272;2024-01-15T10:58:08;6.90;99.90
21035;DHT22;10676;50.848;3.272;2024-01-15T11:00:35;7.00;99.90
21035;DHT22;10676;50.848;3.272;2024-01-15T11:03:03;7.00;99.90
21035;DHT22;10676;50.848;3.272;2024-01-15T11:05:34;7.00;99.90
21035;DHT22;10676;50.848;3.272;2024-01-15T11:08:02;7.00;99.90
21035;DHT22;10676;50.848;3.272;2024-01-15T11:10:47;6.90;99.90
21035;DHT22;10676;50.848;3.272;2024-01-15T11:16:08;6.90;99.90
21035;DHT22;10676;50.848;3.272;2024-01-15T11:21:22;7.30;99.90
21035;DHT22;10676;50.848;3.272;2024-01-15T11:24:01;7.40;99.90
21035;DHT22;10676;50.848;3.272;2024-01-15T11:26:45;7.40;99.90
21035;DHT22;10676;50.848;3.272;2024-01-15T11:34:21;8.00;99.90
21035;DHT22;10676;50.848;3.272;2024-01-15T11:37:07;8.10;99.90
21035;DHT22;10676;50.848;3.272;2024-01-15T11:42:00;7.90;99.90
21035;DHT22;10676;50.848;3.272;2024-01-15T11:44:27;7.70;99.90
21035;DHT22;10676;50.848;3.272;2024-01-15T11:47:01;7.50;99.90
21035;DHT22;10676;50.848;3.272;2024-01-15T11:50:01;7.30;99.90
21035;DHT22;10676;50.848;3.272;2024-01-15T11:52:38;7.10;99.90
21035;DHT22;10676;50.848;3.272;2024-01-15T11:55:22;7.00;99.90
21035;DHT22;10676;50.848;3.272;2024-01-15T11:57:52;7.00;99.90
21035;DHT22;10676;50.848;3.272;2024-01-15T12:00:20;7.00;99.90
21035;DHT22;10676;50.848;3.272;2024-01-15T12:02:48;6.90;99.90
21035;DHT22;10676;50.848;3.272;2024-01-15T12:05:15;6.80;99.90
21035;DHT22;10676;50.848;3.272;2024-01-15T12:07:43;6.80;99.90
21035;DHT22;10676;50.848;3.272;2024-01-15T12:10:13;6.70;99.90
21035;DHT22;10676;50.848;3.272;2024-01-15T12:13:10;6.60;99.90
21035;DHT22;10676;50.848;3.272;2024-01-15T12:15:37;6.40;99.90
21035;DHT22;10676;50.848;3.272;2024-01-15T12:18:03;6.40;99.90
21035;DHT22;10676;50.848;3.272;2024-01-15T12:20:30;6.40;99.90
21035;DHT22;10676;50.848;3.272;2024-01-15T12:22:56;6.30;99.90
21035;DHT22;10676;50.848;3.272;2024-01-15T12:25:23;6.30;99.90
21035;DHT22;10676;50.848;3.272;2024-01-15T12:27:49;6.30;99.90
21035;DHT22;10676;50.848;3.272;2024-01-15T12:30:15;6.30;99.90
21035;DHT22;10676;50.848;3.272;2024-01-15T12:32:41;6.30;99.90
21035;DHT22;10676;50.848;3.272;2024-01-15T12:35:08;6.70;99.90
21035;DHT22;10676;50.848;3.272;2024-01-15T12:37:40;6.90;99.90
21035;DHT22;10676;50.848;3.272;2024-01-15T12:40:08;7.10;99.90
21035;DHT22;10676;50.848;3.272;2024-01-15T12:42:35;7.50;99.90
21035;DHT22;10676;50.848;3.272;2024-01-15T12:45:02;7.90;99.90
21035;DHT22;10676;50.848;3.272;2024-01-15T12:47:28;8.30;99.90
21035;DHT22;10676;50.848;3.272;2024-01-15T12:49:55;8.40;99.90
21035;DHT22;10676;50.848;3.272;2024-01-15T12:52:21;8.40;99.90
21035;DHT22;10676;50.848;3.272;2024-01-15T12:54:48;8.40;99.90
21035;DHT22;10676;50.848;3.272;2024-01-15T12:57:14;8.30;99.90
21035;DHT22;10676;50.848;3.272;2024-01-15T12:59:39;8.20;99.90
21035;DHT22;10676;50.848;3.272;2024-01-15T13:02:05;8.10;99.90
21035;DHT22;10676;50.848;3.272;2024-01-15T13:04:31;8.00;99.90
21035;DHT22;10676;50.848;3.272;2024-01-15T13:06:57;7.80;99.90
21035;DHT22;10676;50.848;3.272;2024-01-15T13:09:22;7.80;99.90
21035;DHT22;10676;50.848;3.272;2024-01-15T13:11:48;7.70;99.90
21035;DHT22;10676;50.848;3.272;2024-01-15T13:14:14;7.90;99.90
21035;DHT22;10676;50.848;3.272;2024-01-15T13:16:43;8.00;99.90
21035;DHT22;10676;50.848;3.272;2024-01-15T13:19:09;8.00;99.90
21035;DHT22;10676;50.848;3.272;2024-01-15T13:21:41;8.00;99.90
21035;DHT22;10676;50.848;3.272;2024-01-15T13:24:07;7.90;99.90
21035;DHT22;10676;50.848;3.272;2024-01-15T13:26:33;7.70;99.90
21035;DHT22;10676;50.848;3.272;2024-01-15T13:29:03;7.80;99.90
21035;DHT22;10676;50.848;3.272;2024-01-15T13:31:32;7.70;99.90
21035;DHT22;10676;50.848;3.272;2024-01-15T13:33:58;7.70;99.90
21035;DHT22;10676;50.848;3.272;2024-01-15T13:36:25;7.70;99.90
21035;DHT22;10676;50.848;3.272;2024-01-15T13:38:51;7.60;99.90
21035;DHT22;10676;50.848;3.272;2024-01-15T13:41:17;7.50;99.90
21035;DHT22;10676;50.848;3.272;2024-01-15T13:44:03;7.40;99.90
21035;DHT22;10676;50.848;3.272;2024-01-15T13:46:29;7.20;99.90
21035;DHT22;10676;50.848;3.272;2024-01-15T13:48:55;7.10;99.90
21035;DHT22;10676;50.848;3.272;2024-01-15T13:51:24;6.90;99.90
21035;DHT22;10676;50.848;3.272;2024-01-15T13:53:50;6.90;99.90
21035;DHT22;10676;50.848;3.272;2024-01-15T13:56:16;6.70;99.90
21035;DHT22;10676;50.848;3.272;2024-01-15T13:58:42;6.70;99.90
21035;DHT22;10676;50.848;3.272;2024-01-15T14:01:08;6.60;99.90
21035;DHT22;10676;50.848;3.272;2024-01-15T14:03:34;6.50;99.90
21035;DHT22;10676;50.848;3.272;2024-01-15T14:06:00;6.50;99.90
21035;DHT22;10676;50.848;3.272;2024-01-15T14:08:28;6.40;99.90
21035;DHT22;10676;50.848;3.272;2024-01-15T14:10:54;6.40;99.90
21035;DHT22;10676;50.848;3.272;2024-01-15T14:13:21;6.30;99.90
21035;DHT22;10676;50.848;3.272;2024-01-15T14:15:47;6.20;99.90
21035;DHT22;10676;50.848;3.272;2024-01-15T14:18:16;6.10;99.90
21035;DHT22;10676;50.848;3.272;2024-01-15T14:20:41;6.00;99.90
21035;DHT22;10676;50.848;3.272;2024-01-15T14:23:08;5.90;99.90
21035;DHT22;10676;50.848;3.272;2024-01-15T14:25:33;5.90;99.90
21035;DHT22;10676;50.848;3.272;2024-01-15T14:27:59;5.90;99.90
21035;DHT22;10676;50.848;3.272;2024-01-15T14:30:25;5.90;99.90
21035;DHT22;10676;50.848;3.272;2024-01-15T14:32:51;5.90;99.90
21035;DHT22;10676;50.848;3.272;2024-01-15T14:35:16;5.90;99.90
21035;DHT22;10676;50.848;3.272;2024-01-15T14:37:42;6.00;99.90
21035;DHT22;10676;50.848;3.272;2024-01-15T14:40:08;6.00;99.90
21035;DHT22;10676;50.848;3.272;2024-01-15T14:42:35;6.00;99.90
21035;DHT22;10676;50.848;3.272;2024-01-15T14:45:02;6.00;99.90
21035;DHT22;10676;50.848;3.272;2024-01-15T14:47:28;6.10;99.90
21035;DHT22;10676;50.848;3.272;2024-01-15T14:49:54;6.10;99.90
21035;DHT22;10676;50.848;3.272;2024-01-15T14:52:22;6.20;99.90
21035;DHT22;10676;50.848;3.272;2024-01-15T14:54:47;6.20;99.90
21035;DHT22;10676;50.848;3.272;2024-01-15T14:57:13;6.10;99.90
21035;DHT22;10676;50.848;3.272;2024-01-15T14:59:39;6.00;99.90
21035;DHT22;10676;50.848;3.272;2024-01-15T15:02:05;5.80;99.90
21035;DHT22;10676;50.848;3.272;2024-01-15T15:04:32;5.60;99.90
21035;DHT22;10676;50.848;3.272;2024-01-15T15:06:57;5.40;99.90
21035;DHT22;10676;50.848;3.272;2024-01-15T15:09:23;5.20;99.90
21035;DHT22;10676;50.848;3.272;2024-01-15T15:11:49;5.00;99.90
21035;DHT22;10676;50.848;3.272;2024-01-15T15:14:15;4.80;99.90
21035;DHT22;10676;50.848;3.272;2024-01-15T15:16:40;4.60;99.90
21035;DHT22;10676;50.848;3.272;2024-01-15T15:19:06;4.60;99.90
21035;DHT22;10676;50.848;3.272;2024-01-15T15:21:31;4.40;99.90
21035;DHT22;10676;50.848;3.272;2024-01-15T15:23:57;4.30;99.90
21035;DHT22;10676;50.848;3.272;2024-01-15T15:26:23;4.30;99.90
21035;DHT22;10676;50.848;3.272;2024-01-15T15:28:48;4.20;99.90
21035;DHT22;10676;50.848;3.272;2024-01-15T15:31:14;4.30;99.90
21035;DHT22;10676;50.848;3.272;2024-01-15T15:33:40;4.40;99.90
21035;DHT22;10676;50.848;3.272;2024-01-15T15:36:06;4.40;99.90
21035;DHT22;10676;50.848;3.272;2024-01-15T15:38:32;4.50;99.90
21035;DHT22;10676;50.848;3.272;2024-01-15T15:40:58;4.60;99.90
21035;DHT22;10676;50.848;3.272;2024-01-15T15:43:25;4.70;99.90
21035;DHT22;10676;50.848;3.272;2024-01-15T15:45:51;4.70;99.90
21035;DHT22;10676;50.848;3.272;2024-01-15T15:48:16;4.80;99.90
21035;DHT22;10676;50.848;3.272;2024-01-15T15:50:42;4.60;99.90
21035;DHT22;10676;50.848;3.272;2024-01-15T15:53:08;4.60;99.90
21035;DHT22;10676;50.848;3.272;2024-01-15T15:55:33;4.60;99.90